createdAt,value
2023-03-11T11:22:06.317Z,2.40
2023-03-11T11:27:23.998Z,2.87
2023-03-11T11:32:26.638Z,3.00
2023-03-11T11:37:34.723Z,2.97
2023-03-11T11:42:38.910Z,2.90
2023-03-11T11:47:47.100Z,2.60
2023-03-11T11:52:55.308Z,2.77
2023-03-11T11:57:57.540Z,2.67
2023-03-11T12:03:08.221Z,2.70
2023-03-11T12:08:27.193Z,2.87
2023-03-11T12:13:50.183Z,2.77
2023-03-11T12:19:16.994Z,2.50
2023-03-11T12:24:30.626Z,2.53
2023-03-11T12:29:43.476Z,2.63
2023-03-11T12:34:46.251Z,2.33
2023-03-11T12:39:49.514Z,2.90
2023-03-11T12:44:52.024Z,2.37
2023-03-11T12:49:55.806Z,2.40
2023-03-11T12:55:01.181Z,2.63
2023-03-11T13:00:27.488Z,2.20
2023-03-11T13:05:50.664Z,2.90
2023-03-11T13:10:54.938Z,2.23
2023-03-11T13:15:57.596Z,2.60
2023-03-11T13:21:01.753Z,2.60
2023-03-11T13:26:36.333Z,3.03
2023-03-11T13:31:40.952Z,2.67
2023-03-11T13:37:04.851Z,2.30
2023-03-11T13:42:20.199Z,2.70
2023-03-11T13:47:23.609Z,3.93
2023-03-11T13:52:38.356Z,2.40
2023-03-11T13:57:39.997Z,2.43
2023-03-11T14:02:51.049Z,2.13
2023-03-11T14:07:53.629Z,2.80
2023-03-11T14:13:06.908Z,2.77
2023-03-11T14:18:40.820Z,2.53
2023-03-11T14:23:46.446Z,2.77
2023-03-11T14:28:52.176Z,2.60
2023-03-11T14:34:09.929Z,2.80
2023-03-11T14:39:33.884Z,2.87
2023-03-11T14:44:40.425Z,2.50
2023-03-11T14:49:42.645Z,2.90
2023-03-11T14:54:46.057Z,2.97
2023-03-11T14:59:50.685Z,2.60
2023-03-11T15:04:54.791Z,2.53
2023-03-11T15:09:56.819Z,2.60
2023-03-11T15:14:58.977Z,3.37
2023-03-11T15:20:00.638Z,2.63
2023-03-11T15:25:05.425Z,3.10
2023-03-11T15:30:28.648Z,2.97
2023-03-11T15:35:31.308Z,3.47
2023-03-11T15:40:44.853Z,3.63
2023-03-11T15:45:49.037Z,2.97
2023-03-11T15:51:00.723Z,3.37
2023-03-11T15:56:10.947Z,3.00
2023-03-11T16:01:12.650Z,2.90
2023-03-11T16:06:14.420Z,2.70
2023-03-11T16:11:16.721Z,2.30
2023-03-11T16:16:18.835Z,5.27
2023-03-11T16:21:24.252Z,3.10
2023-03-11T16:26:26.003Z,4.00
2023-03-11T16:31:28.283Z,3.90
2023-03-11T16:36:30.193Z,3.40
2023-03-11T16:41:42.289Z,2.70
2023-03-11T16:46:44.073Z,4.03
2023-03-11T16:51:45.937Z,9.17
2023-03-11T16:56:47.703Z,3.07
2023-03-11T17:01:49.507Z,3.43
2023-03-11T17:06:51.139Z,2.87
2023-03-11T17:11:53.497Z,3.00
2023-03-11T17:16:55.334Z,3.07
2023-03-11T17:21:57.756Z,2.93
2023-03-11T17:26:59.496Z,2.87
2023-03-11T17:32:02.085Z,3.23
2023-03-11T17:37:03.742Z,3.13
2023-03-11T17:42:05.789Z,3.00
2023-03-11T17:47:07.500Z,2.97
2023-03-11T17:52:09.395Z,2.90
2023-03-11T17:57:11.250Z,3.10
2023-03-11T18:02:14.352Z,2.80
2023-03-11T18:07:16.114Z,2.87
2023-03-11T18:12:17.834Z,2.80
2023-03-11T18:17:21.129Z,2.93
2023-03-11T18:22:22.863Z,3.10
2023-03-11T18:27:24.721Z,4.23
2023-03-11T18:32:26.471Z,3.73
2023-03-11T18:37:28.280Z,3.87
2023-03-11T18:42:29.893Z,4.37
2023-03-11T18:47:35.625Z,4.80
2023-03-11T18:52:37.280Z,4.50
2023-03-11T18:57:41.708Z,3.60
2023-03-11T19:02:43.531Z,2.83
2023-03-11T19:07:45.376Z,3.13
2023-03-11T19:12:47.281Z,4.00
2023-03-11T19:18:00.575Z,3.00
2023-03-11T19:23:07.759Z,2.90
2023-03-11T19:28:09.387Z,3.10
2023-03-11T19:33:11.249Z,3.40
2023-03-11T19:38:12.928Z,3.30
2023-03-11T19:43:15.023Z,5.43
2023-03-11T19:48:17.061Z,3.73
2023-03-11T19:53:19.109Z,5.40
2023-03-11T19:58:21.843Z,5.37
2023-03-11T20:03:25.083Z,3.50
2023-03-11T20:08:26.967Z,3.43
2023-03-11T20:13:29.081Z,3.83
2023-03-11T20:18:30.814Z,3.63
2023-03-11T20:23:33.041Z,4.10
2023-03-11T20:28:34.813Z,3.77
2023-03-11T20:33:37.982Z,5.37
2023-03-11T20:38:40.092Z,3.70
2023-03-11T20:43:42.232Z,3.53
2023-03-11T20:48:43.965Z,4.23
2023-03-11T20:53:46.483Z,3.67
2023-03-11T20:58:51.147Z,4.87
2023-03-11T21:03:55.437Z,4.33
2023-03-11T21:08:58.865Z,4.50
2023-03-11T21:14:00.802Z,4.07
2023-03-11T21:19:05.532Z,4.70
2023-03-11T21:24:07.992Z,4.40
2023-03-11T21:29:10.108Z,4.43
2023-03-11T21:34:12.059Z,4.97
2023-03-11T21:39:15.247Z,4.87
2023-03-11T21:44:17.836Z,4.20
2023-03-11T21:49:19.610Z,5.37
2023-03-11T21:54:21.261Z,5.70
2023-03-11T21:59:25.423Z,4.97
2023-03-11T22:04:27.393Z,6.20
2023-03-11T22:09:29.260Z,5.40
2023-03-11T22:14:31.060Z,6.23
2023-03-11T22:19:32.942Z,5.07
2023-03-11T22:24:34.614Z,5.00
2023-03-11T22:29:36.394Z,5.80
2023-03-11T22:34:38.087Z,5.83
2023-03-11T22:39:39.723Z,6.07
2023-03-11T22:44:41.399Z,4.80
2023-03-11T22:49:43.150Z,4.70
2023-03-11T22:54:44.831Z,5.03
2023-03-11T22:59:46.548Z,4.70
2023-03-11T23:04:48.204Z,4.80
2023-03-11T23:09:50.062Z,5.60
2023-03-11T23:14:51.993Z,5.33
2023-03-11T23:19:53.607Z,5.50
2023-03-11T23:24:55.262Z,4.60
2023-03-11T23:29:56.920Z,4.90
2023-03-11T23:34:58.557Z,5.53
2023-03-11T23:40:00.227Z,4.57
2023-03-11T23:45:02.229Z,5.00
2023-03-11T23:50:04.612Z,4.23
2023-03-11T23:55:06.825Z,5.30
